Paris, Idaho
Current Conditions -  °F | °C
As of 4:51 PM on Friday 21 Nov 2014 (Local Time) from KLGU Reporting Station
Clear Clear  
Wind Chill: 44°   Ceiling: Unl
Heat Index: 44°   Visibility: 10mi
Dew Point: 26°   Wind: 0mph
Humidity: 49%   Direction: NA
Pressure: 29.99"   Gusts: NA
Location:  42.23°N, 111.4°W
Report Text: KLGU 212351Z AUTO 00000KT 10SM CLR 07/M03 A2999 RMK AO2 SLP164 T00671033 10089 20017 55003
Loading
Personal Weather Stations






























Interactive Weather Map New forecast layout! Learn more

10-Day Weather Forecast

Advertisements
Track Severe Weather on mobile